sensor_id;sensor_type;location;lat;lon;timestamp;P1;durP1;ratioP1;P2;durP2;ratioP2
3757;SDS011;1894;51.038;13.692;2023-11-21T00:02:27;2.00;;;1.00;;
3757;SDS011;1894;51.038;13.692;2023-11-21T00:04:54;1.23;;;1.10;;
3757;SDS011;1894;51.038;13.692;2023-11-21T00:07:21;2.33;;;1.10;;
3757;SDS011;1894;51.038;13.692;2023-11-21T00:09:49;2.27;;;1.03;;
3757;SDS011;1894;51.038;13.692;2023-11-21T00:12:16;2.27;;;1.30;;
3757;SDS011;1894;51.038;13.692;2023-11-21T00:14:44;1.83;;;1.33;;
3757;SDS011;1894;51.038;13.692;2023-11-21T00:17:11;1.23;;;1.10;;
3757;SDS011;1894;51.038;13.692;2023-11-21T00:19:38;3.63;;;1.00;;
3757;SDS011;1894;51.038;13.692;2023-11-21T00:22:06;1.43;;;1.00;;
3757;SDS011;1894;51.038;13.692;2023-11-21T00:24:33;5.27;;;1.37;;
3757;SDS011;1894;51.038;13.692;2023-11-21T00:27:01;2.13;;;1.33;;
3757;SDS011;1894;51.038;13.692;2023-11-21T00:29:29;2.77;;;1.43;;
3757;SDS011;1894;51.038;13.692;2023-11-21T00:31:56;1.23;;;1.00;;
3757;SDS011;1894;51.038;13.692;2023-11-21T00:34:23;1.70;;;1.23;;
3757;SDS011;1894;51.038;13.692;2023-11-21T00:36:51;2.50;;;1.33;;
3757;SDS011;1894;51.038;13.692;2023-11-21T00:39:19;0.97;;;0.80;;
3757;SDS011;1894;51.038;13.692;2023-11-21T00:41:47;1.60;;;1.10;;
3757;SDS011;1894;51.038;13.692;2023-11-21T00:44:14;2.80;;;1.20;;
3757;SDS011;1894;51.038;13.692;2023-11-21T00:46:42;1.40;;;1.10;;
3757;SDS011;1894;51.038;13.692;2023-11-21T00:49:09;1.43;;;1.13;;
3757;SDS011;1894;51.038;13.692;2023-11-21T00:51:36;3.50;;;1.73;;
3757;SDS011;1894;51.038;13.692;2023-11-21T00:54:04;2.53;;;1.57;;
3757;SDS011;1894;51.038;13.692;2023-11-21T00:56:33;3.03;;;1.07;;
3757;SDS011;1894;51.038;13.692;2023-11-21T00:59:00;2.27;;;1.30;;
3757;SDS011;1894;51.038;13.692;2023-11-21T01:01:27;2.73;;;1.20;;
3757;SDS011;1894;51.038;13.692;2023-11-21T01:03:55;3.73;;;1.20;;
3757;SDS011;1894;51.038;13.692;2023-11-21T01:06:22;1.67;;;1.13;;
3757;SDS011;1894;51.038;13.692;2023-11-21T01:08:49;3.13;;;1.50;;
3757;SDS011;1894;51.038;13.692;2023-11-21T01:11:16;3.00;;;1.17;;
3757;SDS011;1894;51.038;13.692;2023-11-21T01:13:44;3.33;;;1.40;;
3757;SDS011;1894;51.038;13.692;2023-11-21T01:16:11;2.60;;;1.80;;
3757;SDS011;1894;51.038;13.692;2023-11-21T01:18:39;3.00;;;1.00;;
3757;SDS011;1894;51.038;13.692;2023-11-21T01:21:06;1.60;;;1.23;;
3757;SDS011;1894;51.038;13.692;2023-11-21T01:23:35;2.53;;;1.53;;
3757;SDS011;1894;51.038;13.692;2023-11-21T01:26:03;1.93;;;1.10;;
3757;SDS011;1894;51.038;13.692;2023-11-21T01:28:30;3.00;;;1.40;;
3757;SDS011;1894;51.038;13.692;2023-11-21T01:30:57;4.60;;;1.90;;
3757;SDS011;1894;51.038;13.692;2023-11-21T01:33:24;2.33;;;1.40;;
3757;SDS011;1894;51.038;13.692;2023-11-21T01:35:52;3.53;;;1.37;;
3757;SDS011;1894;51.038;13.692;2023-11-21T01:38:22;2.30;;;1.53;;
3757;SDS011;1894;51.038;13.692;2023-11-21T01:40:49;6.03;;;2.13;;
3757;SDS011;1894;51.038;13.692;2023-11-21T01:43:17;2.27;;;1.43;;
3757;SDS011;1894;51.038;13.692;2023-11-21T01:45:44;1.60;;;1.50;;
3757;SDS011;1894;51.038;13.692;2023-11-21T01:48:12;4.37;;;1.50;;
3757;SDS011;1894;51.038;13.692;2023-11-21T01:50:40;5.30;;;1.53;;
3757;SDS011;1894;51.038;13.692;2023-11-21T01:53:08;2.40;;;1.70;;
3757;SDS011;1894;51.038;13.692;2023-11-21T01:55:40;5.30;;;1.53;;
3757;SDS011;1894;51.038;13.692;2023-11-21T01:58:09;6.03;;;2.00;;
3757;SDS011;1894;51.038;13.692;2023-11-21T02:00:39;2.57;;;1.77;;
3757;SDS011;1894;51.038;13.692;2023-11-21T02:03:06;3.30;;;2.17;;
3757;SDS011;1894;51.038;13.692;2023-11-21T02:05:34;4.17;;;1.57;;
3757;SDS011;1894;51.038;13.692;2023-11-21T02:08:01;3.33;;;1.70;;
3757;SDS011;1894;51.038;13.692;2023-11-21T02:10:30;3.53;;;1.43;;
3757;SDS011;1894;51.038;13.692;2023-11-21T02:12:58;4.70;;;1.53;;
3757;SDS011;1894;51.038;13.692;2023-11-21T02:15:29;3.33;;;1.63;;
3757;SDS011;1894;51.038;13.692;2023-11-21T02:17:56;3.13;;;1.30;;
3757;SDS011;1894;51.038;13.692;2023-11-21T02:20:26;6.03;;;1.90;;
3757;SDS011;1894;51.038;13.692;2023-11-21T02:22:56;2.33;;;1.40;;
3757;SDS011;1894;51.038;13.692;2023-11-21T02:27:58;2.33;;;1.33;;
3757;SDS011;1894;51.038;13.692;2023-11-21T02:30:27;3.93;;;1.20;;
3757;SDS011;1894;51.038;13.692;2023-11-21T02:32:55;3.07;;;1.20;;
3757;SDS011;1894;51.038;13.692;2023-11-21T02:35:25;4.00;;;1.53;;
3757;SDS011;1894;51.038;13.692;2023-11-21T02:37:53;3.20;;;1.30;;
3757;SDS011;1894;51.038;13.692;2023-11-21T02:40:21;1.87;;;1.23;;
3757;SDS011;1894;51.038;13.692;2023-11-21T02:42:48;7.20;;;1.37;;
3757;SDS011;1894;51.038;13.692;2023-11-21T02:45:19;7.67;;;1.67;;
3757;SDS011;1894;51.038;13.692;2023-11-21T02:47:51;2.60;;;1.50;;
3757;SDS011;1894;51.038;13.692;2023-11-21T02:50:20;4.70;;;1.20;;
3757;SDS011;1894;51.038;13.692;2023-11-21T02:52:50;4.20;;;1.50;;
3757;SDS011;1894;51.038;13.692;2023-11-21T02:55:19;2.20;;;1.03;;
3757;SDS011;1894;51.038;13.692;2023-11-21T02:57:46;3.73;;;1.50;;
3757;SDS011;1894;51.038;13.692;2023-11-21T03:00:13;3.63;;;1.43;;
3757;SDS011;1894;51.038;13.692;2023-11-21T03:02:42;5.13;;;1.37;;
3757;SDS011;1894;51.038;13.692;2023-11-21T03:05:10;7.27;;;1.50;;
3757;SDS011;1894;51.038;13.692;2023-11-21T03:07:39;2.97;;;1.30;;
3757;SDS011;1894;51.038;13.692;2023-11-21T03:10:07;2.47;;;1.43;;
3757;SDS011;1894;51.038;13.692;2023-11-21T03:12:38;7.63;;;1.93;;
3757;SDS011;1894;51.038;13.692;2023-11-21T03:15:09;1.50;;;1.20;;
3757;SDS011;1894;51.038;13.692;2023-11-21T03:17:36;4.93;;;1.47;;
3757;SDS011;1894;51.038;13.692;2023-11-21T03:20:04;3.40;;;1.47;;
3757;SDS011;1894;51.038;13.692;2023-11-21T03:22:32;3.10;;;1.70;;
3757;SDS011;1894;51.038;13.692;2023-11-21T03:25:00;3.47;;;1.43;;
3757;SDS011;1894;51.038;13.692;2023-11-21T03:27:27;4.33;;;1.30;;
3757;SDS011;1894;51.038;13.692;2023-11-21T03:29:54;2.50;;;1.60;;
3757;SDS011;1894;51.038;13.692;2023-11-21T03:32:22;3.03;;;1.67;;
3757;SDS011;1894;51.038;13.692;2023-11-21T03:34:57;5.60;;;2.07;;
3757;SDS011;1894;51.038;13.692;2023-11-21T03:37:26;4.20;;;1.70;;
3757;SDS011;1894;51.038;13.692;2023-11-21T03:39:56;3.40;;;1.50;;
3757;SDS011;1894;51.038;13.692;2023-11-21T03:42:23;8.37;;;1.70;;
3757;SDS011;1894;51.038;13.692;2023-11-21T03:44:54;8.17;;;1.73;;
3757;SDS011;1894;51.038;13.692;2023-11-21T03:47:22;6.20;;;1.83;;
3757;SDS011;1894;51.038;13.692;2023-11-21T03:49:49;5.00;;;1.60;;
3757;SDS011;1894;51.038;13.692;2023-11-21T03:52:16;3.67;;;1.80;;
3757;SDS011;1894;51.038;13.692;2023-11-21T03:54:44;5.57;;;2.00;;
3757;SDS011;1894;51.038;13.692;2023-11-21T03:57:11;2.50;;;1.57;;
3757;SDS011;1894;51.038;13.692;2023-11-21T03:59:42;3.53;;;1.80;;
3757;SDS011;1894;51.038;13.692;2023-11-21T04:02:10;6.07;;;2.20;;
3757;SDS011;1894;51.038;13.692;2023-11-21T04:04:37;3.00;;;1.80;;
3757;SDS011;1894;51.038;13.692;2023-11-21T04:07:05;7.13;;;1.80;;
3757;SDS011;1894;51.038;13.692;2023-11-21T04:09:32;4.60;;;2.40;;
3757;SDS011;1894;51.038;13.692;2023-11-21T04:11:59;4.70;;;2.20;;
3757;SDS011;1894;51.038;13.692;2023-11-21T04:14:26;13.10;;;2.80;;
3757;SDS011;1894;51.038;13.692;2023-11-21T04:16:54;3.83;;;2.47;;
3757;SDS011;1894;51.038;13.692;2023-11-21T04:19:21;9.30;;;2.73;;
3757;SDS011;1894;51.038;13.692;2023-11-21T04:21:48;4.37;;;2.13;;
3757;SDS011;1894;51.038;13.692;2023-11-21T04:24:15;9.47;;;2.30;;
3757;SDS011;1894;51.038;13.692;2023-11-21T04:26:43;6.00;;;3.00;;
3757;SDS011;1894;51.038;13.692;2023-11-21T04:29:11;6.80;;;2.43;;
3757;SDS011;1894;51.038;13.692;2023-11-21T04:31:38;10.40;;;3.00;;
3757;SDS011;1894;51.038;13.692;2023-11-21T04:34:05;6.00;;;2.60;;
3757;SDS011;1894;51.038;13.692;2023-11-21T04:36:32;9.10;;;2.43;;
3757;SDS011;1894;51.038;13.692;2023-11-21T04:39:01;6.00;;;2.77;;
3757;SDS011;1894;51.038;13.692;2023-11-21T04:41:28;6.53;;;2.33;;
3757;SDS011;1894;51.038;13.692;2023-11-21T04:43:58;7.70;;;2.90;;
3757;SDS011;1894;51.038;13.692;2023-11-21T04:46:27;6.00;;;3.23;;
3757;SDS011;1894;51.038;13.692;2023-11-21T04:48:54;8.13;;;2.50;;
3757;SDS011;1894;51.038;13.692;2023-11-21T04:51:23;8.13;;;3.53;;
3757;SDS011;1894;51.038;13.692;2023-11-21T04:53:50;22.97;;;3.90;;
3757;SDS011;1894;51.038;13.692;2023-11-21T04:56:17;9.83;;;2.97;;
3757;SDS011;1894;51.038;13.692;2023-11-21T04:58:45;5.10;;;3.03;;
3757;SDS011;1894;51.038;13.692;2023-11-21T05:01:12;7.07;;;2.53;;
3757;SDS011;1894;51.038;13.692;2023-11-21T05:03:40;11.80;;;2.80;;
3757;SDS011;1894;51.038;13.692;2023-11-21T05:06:11;8.80;;;3.13;;
3757;SDS011;1894;51.038;13.692;2023-11-21T05:08:38;4.03;;;2.70;;
3757;SDS011;1894;51.038;13.692;2023-11-21T05:11:05;11.73;;;3.77;;
3757;SDS011;1894;51.038;13.692;2023-11-21T05:13:33;6.90;;;3.10;;
3757;SDS011;1894;51.038;13.692;2023-11-21T05:16:01;4.60;;;3.00;;
3757;SDS011;1894;51.038;13.692;2023-11-21T05:18:30;9.63;;;3.73;;
3757;SDS011;1894;51.038;13.692;2023-11-21T05:20:58;6.83;;;2.90;;
3757;SDS011;1894;51.038;13.692;2023-11-21T05:23:25;7.63;;;3.10;;
3757;SDS011;1894;51.038;13.692;2023-11-21T05:25:52;6.20;;;2.67;;
3757;SDS011;1894;51.038;13.692;2023-11-21T05:28:19;7.73;;;3.03;;
3757;SDS011;1894;51.038;13.692;2023-11-21T05:30:46;6.67;;;3.73;;
3757;SDS011;1894;51.038;13.692;2023-11-21T05:33:14;9.97;;;4.10;;
3757;SDS011;1894;51.038;13.692;2023-11-21T05:35:41;11.73;;;4.33;;
3757;SDS011;1894;51.038;13.692;2023-11-21T05:38:08;8.03;;;3.60;;
3757;SDS011;1894;51.038;13.692;2023-11-21T05:40:35;8.77;;;3.30;;
3757;SDS011;1894;51.038;13.692;2023-11-21T05:43:03;11.00;;;3.20;;
3757;SDS011;1894;51.038;13.692;2023-11-21T05:45:31;9.53;;;3.30;;
3757;SDS011;1894;51.038;13.692;2023-11-21T05:47:59;9.43;;;3.23;;
3757;SDS011;1894;51.038;13.692;2023-11-21T05:50:26;4.80;;;3.50;;
3757;SDS011;1894;51.038;13.692;2023-11-21T05:52:54;10.93;;;3.23;;
3757;SDS011;1894;51.038;13.692;2023-11-21T05:55:22;6.30;;;2.90;;
3757;SDS011;1894;51.038;13.692;2023-11-21T05:57:52;8.30;;;3.90;;
3757;SDS011;1894;51.038;13.692;2023-11-21T06:00:20;12.07;;;3.40;;
3757;SDS011;1894;51.038;13.692;2023-11-21T06:02:52;9.40;;;3.97;;
3757;SDS011;1894;51.038;13.692;2023-11-21T06:05:22;8.73;;;3.20;;
3757;SDS011;1894;51.038;13.692;2023-11-21T06:07:52;6.13;;;3.00;;
3757;SDS011;1894;51.038;13.692;2023-11-21T06:10:21;7.90;;;3.87;;
3757;SDS011;1894;51.038;13.692;2023-11-21T06:12:51;9.23;;;3.73;;
3757;SDS011;1894;51.038;13.692;2023-11-21T06:15:19;9.57;;;4.67;;
3757;SDS011;1894;51.038;13.692;2023-11-21T06:17:48;7.47;;;3.47;;
3757;SDS011;1894;51.038;13.692;2023-11-21T06:20:19;5.87;;;3.73;;
3757;SDS011;1894;51.038;13.692;2023-11-21T06:22:50;6.83;;;3.63;;
3757;SDS011;1894;51.038;13.692;2023-11-21T06:25:18;7.93;;;3.30;;
3757;SDS011;1894;51.038;13.692;2023-11-21T06:27:46;10.47;;;4.17;;
3757;SDS011;1894;51.038;13.692;2023-11-21T06:30:14;6.53;;;3.50;;
3757;SDS011;1894;51.038;13.692;2023-11-21T06:32:42;7.60;;;4.40;;
3757;SDS011;1894;51.038;13.692;2023-11-21T06:35:14;7.83;;;4.40;;
3757;SDS011;1894;51.038;13.692;2023-11-21T06:37:43;7.00;;;3.63;;
3757;SDS011;1894;51.038;13.692;2023-11-21T06:40:16;9.27;;;5.90;;
3757;SDS011;1894;51.038;13.692;2023-11-21T06:42:45;10.00;;;3.97;;
3757;SDS011;1894;51.038;13.692;2023-11-21T06:45:13;15.07;;;4.87;;
3757;SDS011;1894;51.038;13.692;2023-11-21T06:47:42;8.97;;;3.80;;
3757;SDS011;1894;51.038;13.692;2023-11-21T06:50:10;8.13;;;4.47;;
3757;SDS011;1894;51.038;13.692;2023-11-21T06:52:37;7.30;;;4.60;;
3757;SDS011;1894;51.038;13.692;2023-11-21T06:55:05;10.97;;;4.47;;
3757;SDS011;1894;51.038;13.692;2023-11-21T06:57:35;11.20;;;5.03;;
3757;SDS011;1894;51.038;13.692;2023-11-21T07:00:03;13.37;;;4.90;;
3757;SDS011;1894;51.038;13.692;2023-11-21T07:02:32;17.50;;;5.70;;
3757;SDS011;1894;51.038;13.692;2023-11-21T07:05:00;12.37;;;5.30;;
3757;SDS011;1894;51.038;13.692;2023-11-21T07:07:27;11.57;;;5.03;;
3757;SDS011;1894;51.038;13.692;2023-11-21T07:09:56;16.70;;;5.00;;
3757;SDS011;1894;51.038;13.692;2023-11-21T07:12:23;11.37;;;5.50;;
3757;SDS011;1894;51.038;13.692;2023-11-21T07:14:52;7.83;;;4.80;;
3757;SDS011;1894;51.038;13.692;2023-11-21T07:17:19;18.47;;;5.80;;
3757;SDS011;1894;51.038;13.692;2023-11-21T07:19:49;10.47;;;4.90;;
3757;SDS011;1894;51.038;13.692;2023-11-21T07:22:17;13.70;;;4.93;;
3757;SDS011;1894;51.038;13.692;2023-11-21T07:24:51;13.87;;;6.60;;
3757;SDS011;1894;51.038;13.692;2023-11-21T07:27:18;26.63;;;6.63;;
3757;SDS011;1894;51.038;13.692;2023-11-21T07:29:45;14.63;;;4.87;;
3757;SDS011;1894;51.038;13.692;2023-11-21T07:32:14;13.33;;;4.97;;
3757;SDS011;1894;51.038;13.692;2023-11-21T07:34:42;9.37;;;4.67;;
3757;SDS011;1894;51.038;13.692;2023-11-21T07:37:09;10.63;;;5.10;;
3757;SDS011;1894;51.038;13.692;2023-11-21T07:39:36;12.57;;;6.57;;
3757;SDS011;1894;51.038;13.692;2023-11-21T07:42:08;18.00;;;5.17;;
3757;SDS011;1894;51.038;13.692;2023-11-21T07:44:35;18.33;;;6.57;;
3757;SDS011;1894;51.038;13.692;2023-11-21T07:47:02;8.43;;;4.80;;
3757;SDS011;1894;51.038;13.692;2023-11-21T07:49:31;13.80;;;6.10;;
3757;SDS011;1894;51.038;13.692;2023-11-21T07:51:58;11.93;;;5.73;;
3757;SDS011;1894;51.038;13.692;2023-11-21T07:54:25;13.03;;;5.43;;
3757;SDS011;1894;51.038;13.692;2023-11-21T07:56:52;16.93;;;7.10;;
3757;SDS011;1894;51.038;13.692;2023-11-21T07:59:19;18.07;;;6.53;;
3757;SDS011;1894;51.038;13.692;2023-11-21T08:01:47;10.17;;;5.80;;
3757;SDS011;1894;51.038;13.692;2023-11-21T08:04:14;16.63;;;6.30;;
3757;SDS011;1894;51.038;13.692;2023-11-21T08:06:41;19.80;;;7.80;;
3757;SDS011;1894;51.038;13.692;2023-11-21T08:09:08;15.17;;;6.77;;
3757;SDS011;1894;51.038;13.692;2023-11-21T08:11:36;12.07;;;6.43;;
3757;SDS011;1894;51.038;13.692;2023-11-21T08:14:05;13.10;;;6.77;;
3757;SDS011;1894;51.038;13.692;2023-11-21T08:16:32;12.70;;;7.43;;
3757;SDS011;1894;51.038;13.692;2023-11-21T08:18:59;20.93;;;7.60;;
3757;SDS011;1894;51.038;13.692;2023-11-21T08:21:27;20.73;;;8.20;;
3757;SDS011;1894;51.038;13.692;2023-11-21T08:23:55;18.17;;;7.03;;
3757;SDS011;1894;51.038;13.692;2023-11-21T08:26:23;20.40;;;8.20;;
3757;SDS011;1894;51.038;13.692;2023-11-21T08:28:50;18.07;;;8.40;;
3757;SDS011;1894;51.038;13.692;2023-11-21T08:31:25;18.00;;;7.23;;
3757;SDS011;1894;51.038;13.692;2023-11-21T08:33:53;20.23;;;8.43;;
3757;SDS011;1894;51.038;13.692;2023-11-21T08:36:24;23.10;;;9.00;;
3757;SDS011;1894;51.038;13.692;2023-11-21T08:38:52;19.60;;;7.60;;
3757;SDS011;1894;51.038;13.692;2023-11-21T08:41:19;19.00;;;8.07;;
3757;SDS011;1894;51.038;13.692;2023-11-21T08:43:49;19.67;;;7.60;;
3757;SDS011;1894;51.038;13.692;2023-11-21T08:46:18;14.07;;;8.20;;
3757;SDS011;1894;51.038;13.692;2023-11-21T08:48:46;13.70;;;7.63;;
3757;SDS011;1894;51.038;13.692;2023-11-21T08:51:13;18.40;;;8.57;;
3757;SDS011;1894;51.038;13.692;2023-11-21T08:53:40;19.73;;;9.13;;
3757;SDS011;1894;51.038;13.692;2023-11-21T08:56:08;12.10;;;6.53;;
3757;SDS011;1894;51.038;13.692;2023-11-21T08:58:40;17.63;;;7.73;;
3757;SDS011;1894;51.038;13.692;2023-11-21T09:01:08;10.80;;;7.00;;
3757;SDS011;1894;51.038;13.692;2023-11-21T09:03:35;13.33;;;7.27;;
3757;SDS011;1894;51.038;13.692;2023-11-21T09:06:03;14.13;;;7.83;;
3757;SDS011;1894;51.038;13.692;2023-11-21T09:08:30;17.63;;;6.00;;
3757;SDS011;1894;51.038;13.692;2023-11-21T09:10:58;8.70;;;6.37;;
3757;SDS011;1894;51.038;13.692;2023-11-21T09:13:25;23.73;;;8.90;;
3757;SDS011;1894;51.038;13.692;2023-11-21T09:15:53;11.30;;;5.33;;
3757;SDS011;1894;51.038;13.692;2023-11-21T09:18:20;12.23;;;6.00;;
3757;SDS011;1894;51.038;13.692;2023-11-21T09:20:47;13.07;;;4.93;;
3757;SDS011;1894;51.038;13.692;2023-11-21T09:23:14;5.83;;;4.97;;
3757;SDS011;1894;51.038;13.692;2023-11-21T09:25:42;6.10;;;4.40;;
3757;SDS011;1894;51.038;13.692;2023-11-21T09:28:12;12.90;;;3.63;;
3757;SDS011;1894;51.038;13.692;2023-11-21T09:30:39;9.30;;;4.60;;
3757;SDS011;1894;51.038;13.692;2023-11-21T09:33:07;15.93;;;5.60;;
3757;SDS011;1894;51.038;13.692;2023-11-21T09:35:37;10.67;;;5.97;;
3757;SDS011;1894;51.038;13.692;2023-11-21T09:38:05;9.63;;;5.37;;
3757;SDS011;1894;51.038;13.692;2023-11-21T09:40:36;6.43;;;4.87;;
3757;SDS011;1894;51.038;13.692;2023-11-21T09:43:08;5.90;;;4.90;;
3757;SDS011;1894;51.038;13.692;2023-11-21T09:45:47;5.50;;;5.00;;
3757;SDS011;1894;51.038;13.692;2023-11-21T09:48:23;6.03;;;5.27;;
3757;SDS011;1894;51.038;13.692;2023-11-21T09:50:54;6.00;;;4.47;;
3757;SDS011;1894;51.038;13.692;2023-11-21T09:53:21;7.30;;;4.90;;
3757;SDS011;1894;51.038;13.692;2023-11-21T09:55:51;6.13;;;5.47;;
3757;SDS011;1894;51.038;13.692;2023-11-21T09:58:20;3.70;;;3.10;;
3757;SDS011;1894;51.038;13.692;2023-11-21T10:00:55;3.77;;;3.43;;
3757;SDS011;1894;51.038;13.692;2023-11-21T10:03:26;4.07;;;3.77;;
3757;SDS011;1894;51.038;13.692;2023-11-21T10:05:53;6.20;;;5.60;;
3757;SDS011;1894;51.038;13.692;2023-11-21T10:08:27;9.23;;;7.47;;
3757;SDS011;1894;51.038;13.692;2023-11-21T10:11:15;11.60;;;8.40;;
3757;SDS011;1894;51.038;13.692;2023-11-21T10:13:44;10.03;;;7.60;;
3757;SDS011;1894;51.038;13.692;2023-11-21T10:16:14;10.80;;;9.10;;
3757;SDS011;1894;51.038;13.692;2023-11-21T10:18:52;8.83;;;7.40;;
3757;SDS011;1894;51.038;13.692;2023-11-21T10:21:39;13.87;;;8.80;;
3757;SDS011;1894;51.038;13.692;2023-11-21T10:24:06;13.10;;;9.47;;
3757;SDS011;1894;51.038;13.692;2023-11-21T10:26:34;16.23;;;10.80;;
3757;SDS011;1894;51.038;13.692;2023-11-21T10:29:16;20.00;;;11.40;;
3757;SDS011;1894;51.038;13.692;2023-11-21T10:31:45;13.63;;;10.50;;
3757;SDS011;1894;51.038;13.692;2023-11-21T10:34:15;16.80;;;11.20;;
3757;SDS011;1894;51.038;13.692;2023-11-21T10:36:45;15.80;;;10.80;;
3757;SDS011;1894;51.038;13.692;2023-11-21T10:39:16;13.93;;;10.03;;
3757;SDS011;1894;51.038;13.692;2023-11-21T10:41:45;14.63;;;9.10;;
3757;SDS011;1894;51.038;13.692;2023-11-21T10:44:14;17.30;;;10.70;;
3757;SDS011;1894;51.038;13.692;2023-11-21T10:46:48;18.87;;;10.50;;
3757;SDS011;1894;51.038;13.692;2023-11-21T10:49:18;14.60;;;8.67;;
3757;SDS011;1894;51.038;13.692;2023-11-21T10:51:46;13.53;;;9.70;;
3757;SDS011;1894;51.038;13.692;2023-11-21T10:54:20;14.30;;;9.03;;
3757;SDS011;1894;51.038;13.692;2023-11-21T10:56:53;17.03;;;9.27;;
3757;SDS011;1894;51.038;13.692;2023-11-21T10:59:28;12.50;;;8.30;;
3757;SDS011;1894;51.038;13.692;2023-11-21T11:01:58;12.80;;;8.63;;
3757;SDS011;1894;51.038;13.692;2023-11-21T11:04:27;12.80;;;8.17;;
3757;SDS011;1894;51.038;13.692;2023-11-21T11:06:56;9.90;;;6.50;;
3757;SDS011;1894;51.038;13.692;2023-11-21T11:09:31;9.80;;;6.10;;
3757;SDS011;1894;51.038;13.692;2023-11-21T11:12:03;11.37;;;6.20;;
3757;SDS011;1894;51.038;13.692;2023-11-21T11:14:32;7.87;;;5.73;;
3757;SDS011;1894;51.038;13.692;2023-11-21T11:17:00;7.43;;;5.43;;
3757;SDS011;1894;51.038;13.692;2023-11-21T11:19:29;10.83;;;6.03;;
3757;SDS011;1894;51.038;13.692;2023-11-21T11:27:48;6.67;;;5.00;;
3757;SDS011;1894;51.038;13.692;2023-11-21T11:30:35;10.20;;;5.87;;
3757;SDS011;1894;51.038;13.692;2023-11-21T11:42:18;7.40;;;5.97;;
3757;SDS011;1894;51.038;13.692;2023-11-21T11:44:46;8.57;;;6.53;;
3757;SDS011;1894;51.038;13.692;2023-11-21T11:47:20;11.00;;;7.60;;
3757;SDS011;1894;51.038;13.692;2023-11-21T11:50:07;10.10;;;6.63;;
3757;SDS011;1894;51.038;13.692;2023-11-21T11:52:47;12.13;;;8.80;;
3757;SDS011;1894;51.038;13.692;2023-11-21T11:55:21;10.50;;;7.40;;
3757;SDS011;1894;51.038;13.692;2023-11-21T11:57:51;10.57;;;7.43;;
3757;SDS011;1894;51.038;13.692;2023-11-21T12:02:54;9.73;;;7.43;;
3757;SDS011;1894;51.038;13.692;2023-11-21T12:05:29;12.10;;;8.27;;
3757;SDS011;1894;51.038;13.692;2023-11-21T12:08:11;15.13;;;9.40;;
3757;SDS011;1894;51.038;13.692;2023-11-21T12:10:39;12.03;;;8.67;;
3757;SDS011;1894;51.038;13.692;2023-11-21T12:13:07;12.80;;;8.50;;
3757;SDS011;1894;51.038;13.692;2023-11-21T12:15:39;13.27;;;9.03;;
3757;SDS011;1894;51.038;13.692;2023-11-21T12:18:08;15.70;;;10.03;;
3757;SDS011;1894;51.038;13.692;2023-11-21T12:20:36;10.70;;;7.97;;
3757;SDS011;1894;51.038;13.692;2023-11-21T12:23:06;12.30;;;9.20;;
3757;SDS011;1894;51.038;13.692;2023-11-21T12:25:36;13.50;;;8.90;;
3757;SDS011;1894;51.038;13.692;2023-11-21T12:28:03;16.13;;;10.37;;
3757;SDS011;1894;51.038;13.692;2023-11-21T12:30:33;15.23;;;9.83;;
3757;SDS011;1894;51.038;13.692;2023-11-21T12:33:02;13.03;;;9.50;;
3757;SDS011;1894;51.038;13.692;2023-11-21T12:35:31;13.50;;;8.77;;
3757;SDS011;1894;51.038;13.692;2023-11-21T12:38:01;13.23;;;9.27;;
3757;SDS011;1894;51.038;13.692;2023-11-21T12:40:31;17.37;;;10.43;;
3757;SDS011;1894;51.038;13.692;2023-11-21T12:42:59;15.53;;;10.23;;
3757;SDS011;1894;51.038;13.692;2023-11-21T12:45:31;13.13;;;9.50;;
3757;SDS011;1894;51.038;13.692;2023-11-21T12:48:00;15.47;;;10.37;;
3757;SDS011;1894;51.038;13.692;2023-11-21T12:50:35;15.13;;;9.70;;
3757;SDS011;1894;51.038;13.692;2023-11-21T12:53:08;17.00;;;10.67;;
3757;SDS011;1894;51.038;13.692;2023-11-21T12:55:39;13.47;;;9.80;;
3757;SDS011;1894;51.038;13.692;2023-11-21T12:58:10;14.53;;;10.17;;
3757;SDS011;1894;51.038;13.692;2023-11-21T13:00:43;13.83;;;10.47;;
3757;SDS011;1894;51.038;13.692;2023-11-21T13:03:14;17.87;;;10.57;;
3757;SDS011;1894;51.038;13.692;2023-11-21T13:05:46;17.77;;;10.43;;
3757;SDS011;1894;51.038;13.692;2023-11-21T13:08:20;14.80;;;10.00;;
3757;SDS011;1894;51.038;13.692;2023-11-21T13:10:52;14.13;;;9.53;;
3757;SDS011;1894;51.038;13.692;2023-11-21T13:13:25;18.77;;;11.03;;
3757;SDS011;1894;51.038;13.692;2023-11-21T13:15:56;15.63;;;10.33;;
3757;SDS011;1894;51.038;13.692;2023-11-21T13:18:34;13.77;;;10.07;;
3757;SDS011;1894;51.038;13.692;2023-11-21T13:21:06;13.17;;;9.30;;
3757;SDS011;1894;51.038;13.692;2023-11-21T13:23:46;12.47;;;8.20;;
3757;SDS011;1894;51.038;13.692;2023-11-21T13:26:15;13.47;;;8.97;;
3757;SDS011;1894;51.038;13.692;2023-11-21T13:28:42;12.80;;;8.90;;
3757;SDS011;1894;51.038;13.692;2023-11-21T13:31:13;13.67;;;9.30;;
3757;SDS011;1894;51.038;13.692;2023-11-21T13:33:55;13.50;;;10.10;;
3757;SDS011;1894;51.038;13.692;2023-11-21T13:36:23;19.90;;;10.23;;
3757;SDS011;1894;51.038;13.692;2023-11-21T13:38:52;15.17;;;10.90;;
3757;SDS011;1894;51.038;13.692;2023-11-21T13:41:20;15.57;;;10.80;;
3757;SDS011;1894;51.038;13.692;2023-11-21T13:43:54;16.43;;;10.87;;
3757;SDS011;1894;51.038;13.692;2023-11-21T13:46:30;15.40;;;11.00;;
3757;SDS011;1894;51.038;13.692;2023-11-21T13:49:04;19.70;;;10.07;;
3757;SDS011;1894;51.038;13.692;2023-11-21T13:51:36;17.13;;;12.27;;
3757;SDS011;1894;51.038;13.692;2023-11-21T13:54:12;18.43;;;10.60;;
3757;SDS011;1894;51.038;13.692;2023-11-21T13:56:40;17.27;;;11.67;;
3757;SDS011;1894;51.038;13.692;2023-11-21T13:59:11;13.37;;;9.73;;
3757;SDS011;1894;51.038;13.692;2023-11-21T14:01:51;16.53;;;8.97;;
3757;SDS011;1894;51.038;13.692;2023-11-21T14:04:23;13.63;;;9.63;;
3757;SDS011;1894;51.038;13.692;2023-11-21T14:06:57;11.93;;;8.13;;
3757;SDS011;1894;51.038;13.692;2023-11-21T14:09:28;14.20;;;9.80;;
3757;SDS011;1894;51.038;13.692;2023-11-21T14:12:10;14.67;;;9.13;;
3757;SDS011;1894;51.038;13.692;2023-11-21T14:14:42;11.87;;;8.53;;
3757;SDS011;1894;51.038;13.692;2023-11-21T14:17:10;17.40;;;10.80;;
3757;SDS011;1894;51.038;13.692;2023-11-21T14:19:37;15.27;;;8.90;;
3757;SDS011;1894;51.038;13.692;2023-11-21T14:22:10;14.60;;;9.63;;
3757;SDS011;1894;51.038;13.692;2023-11-21T14:24:37;18.80;;;10.00;;
3757;SDS011;1894;51.038;13.692;2023-11-21T14:27:10;26.23;;;9.43;;
3757;SDS011;1894;51.038;13.692;2023-11-21T14:29:37;16.00;;;10.90;;
3757;SDS011;1894;51.038;13.692;2023-11-21T14:32:07;21.37;;;11.90;;
3757;SDS011;1894;51.038;13.692;2023-11-21T14:34:34;12.13;;;7.37;;
3757;SDS011;1894;51.038;13.692;2023-11-21T14:37:03;16.80;;;7.60;;
3757;SDS011;1894;51.038;13.692;2023-11-21T14:39:30;10.23;;;6.83;;
3757;SDS011;1894;51.038;13.692;2023-11-21T14:42:01;12.10;;;6.30;;
3757;SDS011;1894;51.038;13.692;2023-11-21T14:44:29;8.67;;;5.83;;
3757;SDS011;1894;51.038;13.692;2023-11-21T14:47:02;8.90;;;5.20;;
3757;SDS011;1894;51.038;13.692;2023-11-21T14:49:33;8.27;;;5.23;;
3757;SDS011;1894;51.038;13.692;2023-11-21T14:52:17;11.37;;;5.70;;
3757;SDS011;1894;51.038;13.692;2023-11-21T14:55:00;9.37;;;6.07;;
3757;SDS011;1894;51.038;13.692;2023-11-21T14:57:46;7.90;;;6.10;;
3757;SDS011;1894;51.038;13.692;2023-11-21T15:00:17;9.30;;;6.70;;
3757;SDS011;1894;51.038;13.692;2023-11-21T15:03:02;9.20;;;6.90;;
3757;SDS011;1894;51.038;13.692;2023-11-21T15:05:31;11.80;;;6.40;;
3757;SDS011;1894;51.038;13.692;2023-11-21T15:07:58;9.47;;;6.43;;
3757;SDS011;1894;51.038;13.692;2023-11-21T15:10:35;12.47;;;7.50;;
3757;SDS011;1894;51.038;13.692;2023-11-21T15:13:12;21.20;;;7.00;;
3757;SDS011;1894;51.038;13.692;2023-11-21T15:15:41;11.63;;;7.70;;
3757;SDS011;1894;51.038;13.692;2023-11-21T15:18:09;13.53;;;7.60;;
3757;SDS011;1894;51.038;13.692;2023-11-21T15:20:42;9.47;;;7.00;;
3757;SDS011;1894;51.038;13.692;2023-11-21T15:23:10;8.83;;;7.07;;
3757;SDS011;1894;51.038;13.692;2023-11-21T15:25:39;14.03;;;7.70;;
3757;SDS011;1894;51.038;13.692;2023-11-21T15:28:06;11.40;;;8.30;;